Time;durP1;ratioP1;P1;durP2;ratioP2;P2;SDS_P1;SDS_P2;PMS_P1;PMS_P2;Temp;Humidity;BMP_temperature;BMP_pressure;BME280_temperature;BME280_humidity;BME280_pressure;Samples;Min_cycle;Max_cycle;Signal;HPM_P1;HPM_P2
2021/03/02 00:00:23;;;;;;;32.53;19.98;;;;;;;;;;4988286;28;20207;-78
2021/03/02 00:02:49;;;;;;;30.80;20.45;;;;;;;;;;4971015;28;20180;-79
2021/03/02 00:05:15;;;;;;;30.92;18.02;;;;;;;;;;4987459;28;20210;-78
2021/03/02 00:07:41;;;;;;;35.97;21.45;;;;;;;;;;4987796;28;20255;-78
2021/03/02 00:10:12;;;;;;;31.30;19.85;;;;;;;;;;4986495;28;20180;-79
2021/03/02 00:12:39;;;;;;;31.55;19.75;;;;;;;;;;4970922;28;20183;-79
2021/03/02 00:15:06;;;;;;;28.35;17.48;;;;;;;;;;4971147;28;20183;-79
2021/03/02 00:17:38;;;;;;;29.65;17.67;;;;;;;;;;4987422;28;20188;-79
2021/03/02 00:20:09;;;;;;;32.22;19.33;;;;;;;;;;4987433;28;20222;-78
2021/03/02 00:22:41;;;;;;;28.60;19.02;;;;;;;;;;4986072;28;20533;-78
2021/03/02 00:25:09;;;;;;;34.03;21.27;;;;;;;;;;4987327;28;20176;-78
2021/03/02 00:27:35;;;;;;;31.15;20.45;;;;;;;;;;4987688;28;20176;-78
2021/03/02 00:30:02;;;;;;;32.22;19.73;;;;;;;;;;4988220;28;20172;-78
2021/03/02 00:32:28;;;;;;;25.08;17.38;;;;;;;;;;4986014;28;20213;-79
2021/03/02 00:34:54;;;;;;;29.85;19.90;;;;;;;;;;4987054;28;20475;-79
2021/03/02 00:37:20;;;;;;;28.70;19.25;;;;;;;;;;4987174;28;20199;-79
2021/03/02 00:39:46;;;;;;;35.08;22.88;;;;;;;;;;4986696;28;20219;-78
2021/03/02 00:42:12;;;;;;;31.60;20.42;;;;;;;;;;4970471;28;20175;-78
2021/03/02 00:44:38;;;;;;;34.38;21.25;;;;;;;;;;4969577;28;20195;-79
2021/03/02 00:47:04;;;;;;;31.50;19.45;;;;;;;;;;4976494;28;20233;-78
2021/03/02 00:49:30;;;;;;;29.45;19.17;;;;;;;;;;4987340;28;20187;-78
2021/03/02 00:51:56;;;;;;;29.33;18.73;;;;;;;;;;4985248;28;20184;-78
2021/03/02 00:54:22;;;;;;;31.42;19.52;;;;;;;;;;4968060;28;20191;-78
2021/03/02 00:56:48;;;;;;;33.85;20.45;;;;;;;;;;4987645;28;20203;-78
2021/03/02 00:59:15;;;;;;;26.05;16.60;;;;;;;;;;4986962;28;20266;-78
2021/03/02 01:01:40;;;;;;;29.30;17.65;;;;;;;;;;4985539;28;20295;-78
2021/03/02 01:04:06;;;;;;;26.08;18.25;;;;;;;;;;4986951;28;20183;-78
2021/03/02 01:06:32;;;;;;;26.02;16.98;;;;;;;;;;4986259;28;20191;-78
2021/03/02 01:08:58;;;;;;;28.45;18.40;;;;;;;;;;4987463;28;20211;-78
2021/03/02 01:11:25;;;;;;;25.90;16.70;;;;;;;;;;4986752;28;20215;-78
2021/03/02 01:13:51;;;;;;;28.67;16.67;;;;;;;;;;4986748;28;20191;-78
2021/03/02 01:16:17;;;;;;;24.45;16.52;;;;;;;;;;4985166;28;20188;-78
2021/03/02 01:18:43;;;;;;;29.20;18.48;;;;;;;;;;4968703;28;20198;-79
2021/03/02 01:21:09;;;;;;;22.95;16.83;;;;;;;;;;4987051;28;20259;-78
2021/03/02 01:23:35;;;;;;;26.02;17.30;;;;;;;;;;4985215;28;20184;-78
2021/03/02 01:26:01;;;;;;;31.73;17.80;;;;;;;;;;4974646;28;20211;-78
2021/03/02 01:28:27;;;;;;;27.63;17.77;;;;;;;;;;4966310;28;20223;-78
2021/03/02 01:30:53;;;;;;;28.45;18.75;;;;;;;;;;4984963;28;20218;-78
2021/03/02 01:33:19;;;;;;;28.52;16.30;;;;;;;;;;4986438;28;20175;-78
2021/03/02 01:35:45;;;;;;;23.95;16.75;;;;;;;;;;4969409;28;20187;-78
2021/03/02 01:38:11;;;;;;;31.88;18.20;;;;;;;;;;4973591;28;20227;-78
2021/03/02 01:40:37;;;;;;;24.65;17.75;;;;;;;;;;4985913;28;20206;-78
2021/03/02 01:43:03;;;;;;;24.45;15.75;;;;;;;;;;4984932;28;20195;-78
2021/03/02 01:45:29;;;;;;;30.67;18.85;;;;;;;;;;4968050;28;20183;-78
2021/03/02 01:47:55;;;;;;;25.42;15.55;;;;;;;;;;4986677;28;20247;-78
2021/03/02 01:50:22;;;;;;;24.38;16.67;;;;;;;;;;4985557;28;20188;-78
2021/03/02 01:52:48;;;;;;;26.33;17.60;;;;;;;;;;4984232;28;20192;-78
2021/03/02 01:55:16;;;;;;;25.30;16.15;;;;;;;;;;4985936;28;20204;-78
2021/03/02 01:57:42;;;;;;;25.60;16.48;;;;;;;;;;4986111;28;20428;-78
2021/03/02 02:00:14;;;;;;;25.38;16.75;;;;;;;;;;4969216;28;20506;-78
2021/03/02 02:02:45;;;;;;;29.13;16.60;;;;;;;;;;4985663;28;20180;-78
2021/03/02 02:05:14;;;;;;;26.17;16.38;;;;;;;;;;4984094;28;20192;-78
2021/03/02 02:07:42;;;;;;;24.35;16.20;;;;;;;;;;4977164;28;20180;-78
2021/03/02 02:10:08;;;;;;;24.15;15.65;;;;;;;;;;4965501;28;20454;-78
2021/03/02 02:12:38;;;;;;;30.38;16.83;;;;;;;;;;4968304;28;20223;-78
2021/03/02 02:15:05;;;;;;;27.20;15.35;;;;;;;;;;4986530;28;20187;-78
2021/03/02 02:17:40;;;;;;;31.45;18.15;;;;;;;;;;4985099;28;20246;-78
2021/03/02 02:20:26;;;;;;;25.65;15.77;;;;;;;;;;4984948;28;20214;-78
2021/03/02 02:22:52;;;;;;;31.95;17.50;;;;;;;;;;4985411;28;20187;-78
2021/03/02 02:25:23;;;;;;;26.70;15.57;;;;;;;;;;4985016;28;20184;-78
2021/03/02 02:27:51;;;;;;;27.08;18.45;;;;;;;;;;4985413;28;20796;-78
2021/03/02 02:30:17;;;;;;;23.92;15.70;;;;;;;;;;4985488;28;20610;-78
2021/03/02 02:32:45;;;;;;;23.17;15.13;;;;;;;;;;4983778;28;20180;-78
2021/03/02 02:35:12;;;;;;;22.98;16.10;;;;;;;;;;4984919;28;20282;-78
2021/03/02 02:37:38;;;;;;;24.23;16.98;;;;;;;;;;4984987;28;20187;-78
2021/03/02 02:40:05;;;;;;;27.63;15.82;;;;;;;;;;4984068;28;20192;-78
2021/03/02 02:42:32;;;;;;;21.77;13.80;;;;;;;;;;4984870;28;20215;-78
2021/03/02 02:44:59;;;;;;;23.02;15.98;;;;;;;;;;4985594;28;20175;-78
2021/03/02 02:47:26;;;;;;;21.20;15.50;;;;;;;;;;4984331;28;20230;-78
2021/03/02 02:49:52;;;;;;;27.10;16.38;;;;;;;;;;4983501;28;20184;-78
2021/03/02 02:52:18;;;;;;;25.58;16.63;;;;;;;;;;4976783;28;20507;-78
2021/03/02 02:54:46;;;;;;;25.52;16.42;;;;;;;;;;4984469;28;20219;-78
2021/03/02 02:57:14;;;;;;;23.80;15.43;;;;;;;;;;4985318;28;20222;-78
2021/03/02 02:59:41;;;;;;;25.13;15.02;;;;;;;;;;4981831;28;20179;-78
2021/03/02 03:02:14;;;;;;;22.50;17.35;;;;;;;;;;4983022;28;20259;-78
2021/03/02 03:04:42;;;;;;;24.20;16.25;;;;;;;;;;4984077;28;20262;-78
2021/03/02 03:07:11;;;;;;;28.05;15.32;;;;;;;;;;4985302;28;20207;-78
2021/03/02 03:09:38;;;;;;;25.40;16.90;;;;;;;;;;4969218;28;20192;-78
2021/03/02 03:12:06;;;;;;;25.35;16.92;;;;;;;;;;4985548;28;20234;-78
2021/03/02 03:14:35;;;;;;;20.60;15.57;;;;;;;;;;4984612;28;20261;-78
2021/03/02 03:17:01;;;;;;;24.52;18.25;;;;;;;;;;4982168;28;20207;-78
2021/03/02 03:19:28;;;;;;;28.27;16.63;;;;;;;;;;4984500;28;20654;-79
2021/03/02 03:21:55;;;;;;;22.70;16.13;;;;;;;;;;4984288;28;20208;-78
2021/03/02 03:24:22;;;;;;;24.25;15.30;;;;;;;;;;4984649;28;20207;-78
2021/03/02 03:26:49;;;;;;;25.13;14.95;;;;;;;;;;4984548;28;20231;-79
2021/03/02 03:29:16;;;;;;;26.48;15.50;;;;;;;;;;4984259;28;20179;-78
2021/03/02 03:31:42;;;;;;;25.10;15.18;;;;;;;;;;4983956;28;20180;-78
2021/03/02 03:34:08;;;;;;;23.88;15.90;;;;;;;;;;4983037;28;20190;-78
2021/03/02 03:36:35;;;;;;;27.55;16.52;;;;;;;;;;4982762;28;20270;-78
2021/03/02 03:39:01;;;;;;;25.63;15.80;;;;;;;;;;4985213;28;20176;-78
2021/03/02 03:41:27;;;;;;;21.83;15.73;;;;;;;;;;4984180;28;20210;-78
2021/03/02 03:43:53;;;;;;;26.52;15.18;;;;;;;;;;4984539;28;20199;-79
2021/03/02 03:46:19;;;;;;;30.02;18.30;;;;;;;;;;4983513;28;20179;-78
2021/03/02 03:48:45;;;;;;;22.48;15.00;;;;;;;;;;4984083;28;20224;-78
2021/03/02 03:51:12;;;;;;;26.23;17.55;;;;;;;;;;4984536;28;20246;-78
2021/03/02 03:53:38;;;;;;;25.65;15.25;;;;;;;;;;4967053;28;20186;-78
2021/03/02 03:56:06;;;;;;;28.98;16.20;;;;;;;;;;4983888;28;20199;-78
2021/03/02 03:58:32;;;;;;;23.80;16.42;;;;;;;;;;4982791;28;20188;-78
2021/03/02 04:01:00;;;;;;;27.27;16.30;;;;;;;;;;4964071;28;20219;-78
2021/03/02 04:03:28;;;;;;;26.98;17.42;;;;;;;;;;4984017;28;20235;-78
2021/03/02 04:05:54;;;;;;;29.13;17.67;;;;;;;;;;4984736;28;20178;-78
2021/03/02 04:08:20;;;;;;;24.85;16.85;;;;;;;;;;4983973;28;20263;-78
2021/03/02 04:10:46;;;;;;;24.30;17.13;;;;;;;;;;4982551;28;20263;-78
2021/03/02 04:13:14;;;;;;;27.45;17.38;;;;;;;;;;4983689;28;20199;-78
2021/03/02 04:15:40;;;;;;;24.33;16.40;;;;;;;;;;4983820;28;20200;-78
2021/03/02 04:18:10;;;;;;;26.23;16.90;;;;;;;;;;4977380;28;20219;-78
2021/03/02 04:20:36;;;;;;;24.17;16.77;;;;;;;;;;4984360;28;20208;-78
2021/03/02 04:23:02;;;;;;;28.48;18.48;;;;;;;;;;4983869;28;20184;-78
2021/03/02 04:25:28;;;;;;;26.35;16.48;;;;;;;;;;4983780;28;20328;-78
2021/03/02 04:27:54;;;;;;;29.27;16.77;;;;;;;;;;4983895;28;20761;-78
2021/03/02 04:30:20;;;;;;;27.02;17.27;;;;;;;;;;4987717;28;20179;-78
2021/03/02 04:32:46;;;;;;;25.42;16.90;;;;;;;;;;4971084;28;20251;-78
2021/03/02 04:35:12;;;;;;;25.65;16.40;;;;;;;;;;4987231;28;20191;-78
2021/03/02 04:37:39;;;;;;;23.58;16.73;;;;;;;;;;4987214;28;20198;-78
2021/03/02 04:40:06;;;;;;;28.13;16.50;;;;;;;;;;4987410;28;20200;-78
2021/03/02 04:42:32;;;;;;;23.65;16.00;;;;;;;;;;4987038;28;20184;-79
2021/03/02 04:44:58;;;;;;;24.92;15.82;;;;;;;;;;4986792;28;20250;-78
2021/03/02 04:47:24;;;;;;;38.75;17.80;;;;;;;;;;4986513;28;20238;-78
2021/03/02 04:49:50;;;;;;;23.98;16.63;;;;;;;;;;4985843;28;20179;-78
2021/03/02 04:52:17;;;;;;;24.60;17.83;;;;;;;;;;4978906;28;20187;-79
2021/03/02 04:54:43;;;;;;;22.40;15.93;;;;;;;;;;4969166;28;20682;-78
2021/03/02 04:57:09;;;;;;;23.98;16.02;;;;;;;;;;4987454;28;20180;-78
2021/03/02 04:59:35;;;;;;;32.28;16.05;;;;;;;;;;4987021;28;20194;-78
2021/03/02 05:02:01;;;;;;;27.83;16.83;;;;;;;;;;4986645;28;20502;-78
2021/03/02 05:04:27;;;;;;;24.92;16.95;;;;;;;;;;4986947;28;20183;-78
2021/03/02 05:06:53;;;;;;;21.77;16.00;;;;;;;;;;4985315;28;20183;-78
2021/03/02 05:09:18;;;;;;;29.13;17.63;;;;;;;;;;4987040;28;20204;-78
2021/03/02 05:11:45;;;;;;;26.13;17.05;;;;;;;;;;4987330;28;20176;-78
2021/03/02 05:14:11;;;;;;;24.02;17.15;;;;;;;;;;4985189;28;20211;-79
2021/03/02 05:16:37;;;;;;;24.13;16.10;;;;;;;;;;4978068;28;20180;-78
2021/03/02 05:19:03;;;;;;;23.05;17.17;;;;;;;;;;4986793;28;20188;-78
2021/03/02 05:21:29;;;;;;;29.58;17.75;;;;;;;;;;4986347;28;20231;-78
2021/03/02 05:23:55;;;;;;;28.15;18.33;;;;;;;;;;4987242;28;20223;-79
2021/03/02 05:26:21;;;;;;;27.60;19.15;;;;;;;;;;4985881;28;20183;-78
2021/03/02 05:28:50;;;;;;;38.28;17.50;;;;;;;;;;4986674;28;20199;-79
2021/03/02 05:31:16;;;;;;;25.00;16.33;;;;;;;;;;4985010;28;20242;-79
2021/03/02 05:33:42;;;;;;;25.85;17.27;;;;;;;;;;4986482;28;20180;-80
2021/03/02 05:36:09;;;;;;;25.75;18.23;;;;;;;;;;4969586;28;20187;-80
2021/03/02 05:38:35;;;;;;;29.10;16.83;;;;;;;;;;4984828;28;20668;-80
2021/03/02 05:41:02;;;;;;;33.10;17.25;;;;;;;;;;4985255;28;20291;-80
2021/03/02 05:43:29;;;;;;;25.95;15.90;;;;;;;;;;4984815;28;20188;-80
2021/03/02 05:45:55;;;;;;;28.20;16.38;;;;;;;;;;4985830;28;20184;-80
2021/03/02 05:48:22;;;;;;;27.33;16.58;;;;;;;;;;4986348;28;20235;-80
2021/03/02 05:50:48;;;;;;;24.65;15.73;;;;;;;;;;4969514;28;20249;-80
2021/03/02 05:53:14;;;;;;;29.10;18.35;;;;;;;;;;4985766;28;20187;-80
2021/03/02 05:55:40;;;;;;;24.45;17.00;;;;;;;;;;4985635;28;20622;-80
2021/03/02 05:58:06;;;;;;;28.95;17.50;;;;;;;;;;4984176;28;20271;-80
2021/03/02 06:00:33;;;;;;;29.30;17.77;;;;;;;;;;4984554;28;20214;-80
2021/03/02 06:02:59;;;;;;;26.80;15.77;;;;;;;;;;4985486;28;20180;-80
2021/03/02 06:05:25;;;;;;;29.95;16.95;;;;;;;;;;4985880;28;20180;-80
2021/03/02 06:07:51;;;;;;;23.55;15.88;;;;;;;;;;4985237;28;20227;-80
2021/03/02 06:10:18;;;;;;;27.30;16.10;;;;;;;;;;4985309;28;20247;-80
2021/03/02 06:12:54;;;;;;;23.88;17.00;;;;;;;;;;4985409;28;20664;-80
2021/03/02 06:15:20;;;;;;;25.92;17.48;;;;;;;;;;4985608;28;20239;-80
2021/03/02 06:18:08;;;;;;;25.05;16.25;;;;;;;;;;4984526;28;20267;-80
2021/03/02 06:20:34;;;;;;;27.67;17.25;;;;;;;;;;4969716;28;20238;-80
2021/03/02 06:23:00;;;;;;;28.73;18.27;;;;;;;;;;4985260;28;20196;-80
2021/03/02 06:25:26;;;;;;;28.95;16.52;;;;;;;;;;4983953;28;20228;-80
2021/03/02 06:27:52;;;;;;;26.48;17.67;;;;;;;;;;4985081;28;20206;-80
2021/03/02 06:30:18;;;;;;;25.75;16.25;;;;;;;;;;4985322;28;20176;-80
2021/03/02 06:32:45;;;;;;;23.25;16.10;;;;;;;;;;4986073;28;20176;-80
2021/03/02 06:35:13;;;;;;;27.27;18.23;;;;;;;;;;4984209;28;20187;-79
2021/03/02 06:37:43;;;;;;;31.00;19.40;;;;;;;;;;4976181;28;20218;-80
2021/03/02 06:40:10;;;;;;;29.67;16.75;;;;;;;;;;4964478;28;20199;-80
2021/03/02 06:42:37;;;;;;;31.77;17.77;;;;;;;;;;4985141;28;20184;-80
2021/03/02 06:45:07;;;;;;;23.60;15.85;;;;;;;;;;4984737;28;20200;-80
2021/03/02 06:47:34;;;;;;;29.88;17.58;;;;;;;;;;4968767;28;20235;-80
2021/03/02 06:50:01;;;;;;;26.02;16.63;;;;;;;;;;4984751;28;20230;-79
2021/03/02 06:52:33;;;;;;;27.42;17.25;;;;;;;;;;4984458;28;20184;-80
2021/03/02 06:54:59;;;;;;;24.95;16.90;;;;;;;;;;4983561;28;20211;-80
2021/03/02 06:57:26;;;;;;;27.92;16.80;;;;;;;;;;4967156;28;20194;-80
2021/03/02 06:59:52;;;;;;;24.60;16.58;;;;;;;;;;4984358;28;20207;-80
2021/03/02 07:02:31;;;;;;;27.10;18.03;;;;;;;;;;4971223;28;20191;-80
2021/03/02 07:05:06;;;;;;;25.33;16.75;;;;;;;;;;4984733;28;20435;-79
2021/03/02 07:07:32;;;;;;;25.95;16.35;;;;;;;;;;4984112;28;20203;-79
2021/03/02 07:10:00;;;;;;;27.05;16.27;;;;;;;;;;4983488;28;20562;-80
2021/03/02 07:12:30;;;;;;;27.77;18.65;;;;;;;;;;4984382;28;20235;-80
2021/03/02 07:14:57;;;;;;;26.55;17.25;;;;;;;;;;4985861;28;20167;-80
2021/03/02 07:17:23;;;;;;;33.28;18.77;;;;;;;;;;4982610;28;20183;-80
2021/03/02 07:19:49;;;;;;;26.73;18.47;;;;;;;;;;4974919;28;20272;-80
2021/03/02 07:22:15;;;;;;;30.10;19.58;;;;;;;;;;4984088;28;20865;-80
2021/03/02 07:24:41;;;;;;;32.20;19.70;;;;;;;;;;4984348;28;20188;-80
2021/03/02 07:27:09;;;;;;;32.60;19.30;;;;;;;;;;4980965;28;20171;-80
2021/03/02 07:29:35;;;;;;;26.35;18.10;;;;;;;;;;4964495;28;20188;-80
2021/03/02 07:32:02;;;;;;;29.83;19.83;;;;;;;;;;4982970;28;20329;-80
2021/03/02 07:34:28;;;;;;;26.10;18.58;;;;;;;;;;4984489;28;20191;-80
2021/03/02 07:36:55;;;;;;;27.98;19.60;;;;;;;;;;4982562;28;20191;-80
2021/03/02 07:39:24;;;;;;;34.58;20.95;;;;;;;;;;4984253;28;20184;-80
2021/03/02 07:41:52;;;;;;;32.80;20.60;;;;;;;;;;4983154;28;20200;-80
2021/03/02 07:44:18;;;;;;;31.02;20.55;;;;;;;;;;4984746;28;20184;-80
2021/03/02 07:46:48;;;;;;;38.78;22.40;;;;;;;;;;4983971;28;20277;-80
2021/03/02 07:49:23;;;;;;;30.67;20.15;;;;;;;;;;4982414;28;20243;-80
2021/03/02 07:52:03;;;;;;;30.80;19.45;;;;;;;;;;4984432;28;20203;-80
2021/03/02 07:54:30;;;;;;;33.90;22.52;;;;;;;;;;4984070;28;20231;-80
2021/03/02 07:57:14;;;;;;;39.58;22.10;;;;;;;;;;4985044;28;20175;-80
2021/03/02 07:59:41;;;;;;;28.40;19.98;;;;;;;;;;4984673;28;20187;-80
2021/03/02 08:02:14;;;;;;;32.92;20.27;;;;;;;;;;4983968;28;20203;-80
2021/03/02 08:04:40;;;;;;;34.17;21.95;;;;;;;;;;4987384;28;20524;-80
2021/03/02 08:07:26;;;;;;;31.08;22.30;;;;;;;;;;4986118;28;20637;-80
2021/03/02 08:09:53;;;;;;;29.25;19.42;;;;;;;;;;4972790;28;20187;-80
2021/03/02 08:12:26;;;;;;;32.58;21.00;;;;;;;;;;4987902;28;20255;-80
2021/03/02 08:14:52;;;;;;;33.78;21.38;;;;;;;;;;4985566;28;20178;-79
2021/03/02 08:17:19;;;;;;;32.67;20.65;;;;;;;;;;4987228;28;20187;-80
2021/03/02 08:19:48;;;;;;;29.27;19.10;;;;;;;;;;4986466;28;20642;-80
2021/03/02 08:22:17;;;;;;;35.55;20.77;;;;;;;;;;4979487;28;20199;-80
2021/03/02 08:24:53;;;;;;;34.30;22.55;;;;;;;;;;4969519;28;20715;-80
2021/03/02 08:27:38;;;;;;;38.03;22.08;;;;;;;;;;4970050;28;20258;-80
2021/03/02 08:30:08;;;;;;;33.22;20.88;;;;;;;;;;4970472;28;20259;-80
2021/03/02 08:32:34;;;;;;;36.65;22.30;;;;;;;;;;4987555;28;20251;-80
2021/03/02 08:35:14;;;;;;;33.63;22.92;;;;;;;;;;4987255;28;20672;-80
2021/03/02 08:38:01;;;;;;;33.60;21.88;;;;;;;;;;4985922;28;20451;-80
2021/03/02 08:40:33;;;;;;;33.75;21.33;;;;;;;;;;4969592;28;20736;-80
2021/03/02 08:43:31;;;;;;;33.40;21.40;;;;;;;;;;4986068;28;20195;-80
2021/03/02 08:45:58;;;;;;;34.97;23.73;;;;;;;;;;4895755;29;20230;-80
2021/03/02 08:48:31;;;;;;;39.47;22.70;;;;;;;;;;4892273;29;20226;-80
2021/03/02 08:50:57;;;;;;;38.72;22.60;;;;;;;;;;4907780;29;20187;-80
2021/03/02 08:53:33;;;;;;;38.65;23.38;;;;;;;;;;4892254;29;20197;-80
2021/03/02 08:55:59;;;;;;;35.45;22.38;;;;;;;;;;4908110;29;20206;-80
2021/03/02 08:58:29;;;;;;;31.25;21.10;;;;;;;;;;4892265;29;20193;-80
2021/03/02 09:00:59;;;;;;;39.05;23.42;;;;;;;;;;4908097;29;20246;-80
2021/03/02 09:03:25;;;;;;;36.33;22.00;;;;;;;;;;4908288;29;20202;-80
2021/03/02 09:06:06;;;;;;;32.53;22.38;;;;;;;;;;4891003;29;20553;-80
2021/03/02 09:08:32;;;;;;;33.45;22.02;;;;;;;;;;4891781;29;20364;-80
2021/03/02 09:11:04;;;;;;;36.45;22.35;;;;;;;;;;4907877;29;20197;-80
2021/03/02 09:13:36;;;;;;;34.15;23.55;;;;;;;;;;4892129;29;20249;-80
2021/03/02 09:16:02;;;;;;;27.30;21.92;;;;;;;;;;4906766;29;20198;-80
2021/03/02 09:18:28;;;;;;;37.40;23.60;;;;;;;;;;4891584;29;20188;-80
2021/03/02 09:20:55;;;;;;;33.60;21.27;;;;;;;;;;4908487;29;20212;-80
2021/03/02 09:23:21;;;;;;;35.25;23.10;;;;;;;;;;4983152;28;20429;-80
2021/03/02 09:25:47;;;;;;;29.00;21.05;;;;;;;;;;4977711;28;20586;-80
2021/03/02 09:28:17;;;;;;;37.50;23.40;;;;;;;;;;4986180;28;20386;-80
2021/03/02 09:30:43;;;;;;;33.08;21.73;;;;;;;;;;4954205;28;20832;-81
2021/03/02 09:33:10;;;;;;;34.58;23.42;;;;;;;;;;4970116;28;20641;-80
2021/03/02 09:35:36;;;;;;;42.13;25.55;;;;;;;;;;4985222;28;20180;-80
2021/03/02 09:38:02;;;;;;;33.20;22.40;;;;;;;;;;4974869;28;20183;-80
2021/03/02 09:40:28;;;;;;;42.67;23.73;;;;;;;;;;4965935;28;20262;-80
2021/03/02 09:42:58;;;;;;;31.80;22.65;;;;;;;;;;4986357;28;20434;-80
2021/03/02 09:45:24;;;;;;;38.85;26.17;;;;;;;;;;4969238;28;20175;-81
2021/03/02 09:47:57;;;;;;;34.60;23.98;;;;;;;;;;4968978;28;20220;-80
2021/03/02 09:50:25;;;;;;;37.92;23.40;;;;;;;;;;4971430;28;20191;-80
2021/03/02 09:52:51;;;;;;;37.33;23.40;;;;;;;;;;4965626;28;20534;-80
2021/03/02 09:55:21;;;;;;;37.05;23.63;;;;;;;;;;4984815;28;20224;-80
2021/03/02 09:57:47;;;;;;;35.25;24.80;;;;;;;;;;4985720;28;20308;-80
2021/03/02 10:00:13;;;;;;;36.43;23.90;;;;;;;;;;4985934;28;20223;-79
2021/03/02 10:02:48;;;;;;;40.17;24.55;;;;;;;;;;4985853;28;20419;-80
2021/03/02 10:05:14;;;;;;;36.88;25.33;;;;;;;;;;4984516;28;20197;-80
2021/03/02 10:07:43;;;;;;;37.72;25.13;;;;;;;;;;4985701;28;20395;-80
2021/03/02 10:10:10;;;;;;;35.55;24.67;;;;;;;;;;4985132;28;20251;-80
2021/03/02 10:12:36;;;;;;;37.13;24.35;;;;;;;;;;4968650;28;20187;-80
2021/03/02 10:15:02;;;;;;;36.42;26.05;;;;;;;;;;4986494;28;20180;-80
2021/03/02 10:17:34;;;;;;;33.45;25.08;;;;;;;;;;4984921;28;20188;-80
2021/03/02 10:20:08;;;;;;;37.55;25.25;;;;;;;;;;4984971;28;20194;-81
2021/03/02 10:22:34;;;;;;;37.70;25.95;;;;;;;;;;4984497;28;20619;-81
2021/03/02 10:25:02;;;;;;;37.03;25.00;;;;;;;;;;4985481;28;20214;-80
2021/03/02 10:27:28;;;;;;;42.97;26.77;;;;;;;;;;4967834;28;20182;-80
2021/03/02 10:29:54;;;;;;;34.05;25.35;;;;;;;;;;4985670;28;20176;-80
2021/03/02 10:32:20;;;;;;;33.75;24.95;;;;;;;;;;4985370;28;20190;-80
2021/03/02 10:34:46;;;;;;;34.35;25.33;;;;;;;;;;4985076;28;20179;-80
2021/03/02 10:37:14;;;;;;;38.47;27.17;;;;;;;;;;4984008;28;20186;-80
2021/03/02 10:39:43;;;;;;;43.88;27.60;;;;;;;;;;4969553;28;20208;-80
2021/03/02 10:42:09;;;;;;;39.47;27.52;;;;;;;;;;4980523;28;20267;-80
2021/03/02 10:44:35;;;;;;;44.33;27.60;;;;;;;;;;4985210;28;20183;-80
2021/03/02 10:47:01;;;;;;;45.85;26.42;;;;;;;;;;4983361;28;20216;-81
2021/03/02 10:49:27;;;;;;;36.85;26.48;;;;;;;;;;4984492;28;20203;-81
2021/03/02 10:51:54;;;;;;;40.67;26.52;;;;;;;;;;4984895;28;20192;-80
2021/03/02 10:54:20;;;;;;;38.92;27.05;;;;;;;;;;4967547;28;20211;-80
2021/03/02 10:56:46;;;;;;;38.95;26.27;;;;;;;;;;4985540;28;20186;-80
2021/03/02 10:59:12;;;;;;;37.20;26.52;;;;;;;;;;4984201;28;20187;-80
2021/03/02 11:01:38;;;;;;;35.20;26.63;;;;;;;;;;4983335;28;20212;-81
2021/03/02 11:04:04;;;;;;;36.70;25.65;;;;;;;;;;4964701;28;20183;-81
2021/03/02 11:06:31;;;;;;;37.42;26.58;;;;;;;;;;4985110;28;20167;-80
2021/03/02 11:08:57;;;;;;;36.28;25.77;;;;;;;;;;4985153;28;20194;-80
2021/03/02 11:11:23;;;;;;;40.33;27.55;;;;;;;;;;4984519;28;20188;-80
2021/03/02 11:13:50;;;;;;;35.42;26.23;;;;;;;;;;4983041;28;20183;-80
2021/03/02 11:16:16;;;;;;;42.35;26.65;;;;;;;;;;4976458;28;20200;-80
2021/03/02 11:18:42;;;;;;;37.25;26.77;;;;;;;;;;4966448;28;20183;-81
2021/03/02 11:21:09;;;;;;;36.40;27.90;;;;;;;;;;4967942;28;20259;-80
2021/03/02 11:23:35;;;;;;;34.22;24.65;;;;;;;;;;4982950;28;20435;-81
2021/03/02 11:26:01;;;;;;;33.30;25.03;;;;;;;;;;4984474;28;20179;-81
2021/03/02 11:28:27;;;;;;;37.27;27.40;;;;;;;;;;4982766;28;20435;-80
2021/03/02 11:30:53;;;;;;;42.13;25.73;;;;;;;;;;4984396;28;20435;-80
2021/03/02 11:33:19;;;;;;;35.03;26.50;;;;;;;;;;4984451;28;20426;-81
2021/03/02 11:35:45;;;;;;;36.30;26.30;;;;;;;;;;4985359;28;20176;-80
2021/03/02 11:38:14;;;;;;;32.90;24.90;;;;;;;;;;4982399;28;20192;-80
2021/03/02 11:40:41;;;;;;;38.83;27.58;;;;;;;;;;4984243;28;20616;-80
2021/03/02 11:43:07;;;;;;;31.73;24.48;;;;;;;;;;4984407;28;20186;-80
2021/03/02 11:45:36;;;;;;;35.80;25.80;;;;;;;;;;4984216;28;20510;-80
2021/03/02 11:48:02;;;;;;;34.28;24.10;;;;;;;;;;4985092;28;20222;-81
2021/03/02 11:50:28;;;;;;;36.05;25.05;;;;;;;;;;4982712;28;20192;-81
2021/03/02 11:52:54;;;;;;;31.77;25.30;;;;;;;;;;4974425;28;20188;-80
2021/03/02 11:55:20;;;;;;;37.20;25.80;;;;;;;;;;4963967;28;20451;-80
2021/03/02 11:57:47;;;;;;;35.13;24.75;;;;;;;;;;4982658;28;20474;-81
2021/03/02 12:00:16;;;;;;;32.78;24.63;;;;;;;;;;4966497;28;20203;-80
2021/03/02 12:02:43;;;;;;;34.45;24.15;;;;;;;;;;4981605;28;20182;-81
2021/03/02 12:05:09;;;;;;;32.15;25.02;;;;;;;;;;4984114;28;20207;-81
2021/03/02 12:07:35;;;;;;;33.15;24.20;;;;;;;;;;4982652;28;20203;-82
2021/03/02 12:10:03;;;;;;;34.60;26.77;;;;;;;;;;4963331;28;20210;-80
2021/03/02 12:12:29;;;;;;;34.83;25.83;;;;;;;;;;4984243;28;20198;-81
2021/03/02 12:14:55;;;;;;;33.43;25.93;;;;;;;;;;4983422;28;20254;-81
2021/03/02 12:17:21;;;;;;;34.93;23.47;;;;;;;;;;4983857;28;20462;-81
2021/03/02 12:19:47;;;;;;;32.55;24.88;;;;;;;;;;4983684;28;20431;-80
2021/03/02 12:22:13;;;;;;;27.17;22.63;;;;;;;;;;4982589;28;20266;-81
2021/03/02 12:24:39;;;;;;;34.45;23.83;;;;;;;;;;4967170;28;20215;-81
2021/03/02 12:27:05;;;;;;;34.72;24.60;;;;;;;;;;4984533;28;20628;-81
2021/03/02 12:29:31;;;;;;;32.22;23.10;;;;;;;;;;4983337;28;20215;-81
2021/03/02 12:31:57;;;;;;;32.10;22.30;;;;;;;;;;4984165;28;20191;-82
2021/03/02 12:34:23;;;;;;;29.90;23.80;;;;;;;;;;4983791;28;20461;-81
2021/03/02 12:36:50;;;;;;;27.42;23.83;;;;;;;;;;4982664;28;20534;-81
2021/03/02 12:39:16;;;;;;;29.92;21.40;;;;;;;;;;4966671;28;20227;-80
2021/03/02 12:41:42;;;;;;;31.60;22.70;;;;;;;;;;4983611;28;20195;-81
2021/03/02 12:44:08;;;;;;;29.37;22.80;;;;;;;;;;4984101;28;20238;-81
2021/03/02 12:46:34;;;;;;;32.22;21.45;;;;;;;;;;4982004;28;21203;-81
2021/03/02 12:49:00;;;;;;;30.55;22.05;;;;;;;;;;4983949;28;20179;-81
2021/03/02 12:51:27;;;;;;;31.08;21.90;;;;;;;;;;4968391;28;20178;-80
2021/03/02 12:53:52;;;;;;;32.33;21.60;;;;;;;;;;4988007;28;20232;-80
2021/03/02 12:56:19;;;;;;;28.80;19.30;;;;;;;;;;4985495;28;20598;-81
2021/03/02 12:58:44;;;;;;;25.92;19.33;;;;;;;;;;4978121;28;20466;-81
2021/03/02 13:01:11;;;;;;;26.57;18.77;;;;;;;;;;4967064;28;20275;-81
2021/03/02 13:03:40;;;;;;;24.38;18.75;;;;;;;;;;4969633;28;20430;-81
2021/03/02 13:06:06;;;;;;;21.80;17.85;;;;;;;;;;4970387;28;20208;-81
2021/03/02 13:08:32;;;;;;;21.83;15.98;;;;;;;;;;4971071;28;20184;-78
2021/03/02 13:10:59;;;;;;;22.10;17.52;;;;;;;;;;4986301;28;20203;-78
2021/03/02 13:13:25;;;;;;;22.42;16.95;;;;;;;;;;4986673;28;20187;-79
2021/03/02 13:15:52;;;;;;;23.67;15.35;;;;;;;;;;4986709;28;20184;-79
2021/03/02 13:18:18;;;;;;;22.73;14.55;;;;;;;;;;4969602;28;20184;-79
2021/03/02 13:20:44;;;;;;;19.50;14.80;;;;;;;;;;4984721;28;20749;-79
2021/03/02 13:23:10;;;;;;;26.02;16.23;;;;;;;;;;4974538;28;20433;-79
2021/03/02 13:25:36;;;;;;;14.13;9.52;;;;;;;;;;4986575;28;20219;-77
2021/03/02 13:28:02;;;;;;;12.70;8.20;;;;;;;;;;4986398;28;22505;-78
2021/03/02 13:30:29;;;;;;;11.80;7.80;;;;;;;;;;4986155;28;20422;-77
2021/03/02 13:32:58;;;;;;;12.35;7.13;;;;;;;;;;4986303;28;20176;-77
2021/03/02 13:35:24;;;;;;;11.05;7.13;;;;;;;;;;4972191;28;20227;-77
2021/03/02 13:37:50;;;;;;;11.60;7.07;;;;;;;;;;4986423;28;20183;-77
2021/03/02 13:40:21;;;;;;;16.40;7.38;;;;;;;;;;4965531;28;20200;-77
2021/03/02 13:42:48;;;;;;;11.98;8.40;;;;;;;;;;4986450;28;20187;-77
2021/03/02 13:45:15;;;;;;;9.52;7.25;;;;;;;;;;4986564;28;20167;-77
2021/03/02 13:47:41;;;;;;;12.82;7.15;;;;;;;;;;4983044;28;20623;-77
2021/03/02 13:50:07;;;;;;;8.82;6.25;;;;;;;;;;4985686;28;20188;-78
2021/03/02 13:52:33;;;;;;;7.65;6.10;;;;;;;;;;4966107;28;20250;-77
2021/03/02 13:55:00;;;;;;;9.95;6.43;;;;;;;;;;4985552;28;20202;-77
2021/03/02 13:57:30;;;;;;;12.23;6.38;;;;;;;;;;4986078;28;20172;-77
2021/03/02 13:59:57;;;;;;;11.00;5.55;;;;;;;;;;4967764;28;20182;-76
2021/03/02 14:02:23;;;;;;;11.30;6.55;;;;;;;;;;4965064;28;20705;-77
2021/03/02 14:04:50;;;;;;;8.38;5.60;;;;;;;;;;4985715;28;20180;-77
2021/03/02 14:07:21;;;;;;;7.63;4.90;;;;;;;;;;4985742;28;20669;-77
2021/03/02 14:09:47;;;;;;;8.23;5.68;;;;;;;;;;4967453;28;20199;-76
2021/03/02 14:12:13;;;;;;;8.75;5.55;;;;;;;;;;4985949;28;20187;-76
2021/03/02 14:14:40;;;;;;;10.35;5.70;;;;;;;;;;4985766;28;20239;-77
2021/03/02 14:17:06;;;;;;;9.45;4.75;;;;;;;;;;4985519;28;20191;-76
2021/03/02 14:19:33;;;;;;;7.70;4.60;;;;;;;;;;4965611;28;20223;-77